AirNav   ProFlight Series 2 Aviation Headset
 
 1684 users online  

Y99 Trulson Field Airport
Plaza, North Dakota, USA

GOING TO PLAZA?


FAA INFORMATION EFFECTIVE 16 JULY 2020

Location

FAA Identifier: Y99
Lat/Long: 48-01-50.0450N 101-57-11.6010W
48-01.834083N 101-57.193350W
48.0305681,-101.9532225
(estimated)
Elevation: 2105 ft. / 642 m (estimated)
Variation: 11E (1985)
From city: 1 mile NE of PLAZA, ND
Time zone: UTC -5 (UTC -6 during Standard Time)
Zip code: 58771

Airport Operations

Airport use: Open to the public
Activation date: 12/1978
Control tower: no
ARTCC: MINNEAPOLIS CENTER
FSS: GRAND FORKS FLIGHT SERVICE STATION
NOTAMs facility: GFK (NOTAM-D service available)
Attendance: UNATNDD
Wind indicator: no
Segmented circle: no

Airport Communications

CTAF: 122.9

Nearby radio navigation aids

VOR radial/distance  VOR name  Freq  Var
MOTr230/30.0MINOT VOR/DME117.1013E

Airport Services

Parking: tiedowns
Airframe service: NONE
Powerplant service: NONE
Bottled oxygen: NONE
Bulk oxygen: NONE

Runway Information

Runway 8/26

Dimensions: 3200 x 60 ft. / 975 x 18 m
Surface: turf, in poor condition
TURF SFC HAS CLUMPS, ROLLS AND RUTTING THROUGHOUT RWY LENGTH.
RUNWAY 8  RUNWAY 26
Latitude: 48-01.825000N48-01.825000N
Longitude: 101-57.461667W101-56.676667W
Elevation: 2092.0 ft.2099.0 ft.
Traffic pattern: leftright
Obstructions: 10 ft. acft17 ft. road, 115 ft. left of centerline
RY 26 ALSO +5 FT FENCE 100 FT FROM THR ON EXTENDED CENTERLINE; APRCH RATIO 20:1

Airport Ownership and Management from official FAA records

Ownership: Publicly-owned
Owner: PLAZA MUNICIPAL ARPT AUTH
5690 67TH AVE NW
PLAZA, ND 58771
Phone 701-898-3387
JAY HARSTAD, CHAIRMAN OF ARPT AUTH.
Manager: JAY HARSTAD
5690 67TH AVE NW
PLAZA, ND 58771
Phone 701-898-3387
ADDITIONAL NUMBER FOR MGR 701-453-3387. ADDITIONAL CTC TERRY REESE 701-898-3360.

Airport Operational Statistics

Aircraft operations: 110/year *
91% transient general aviation
9% military
* for 12-month period ending 14 December 2017

Additional Remarks

SNOW REMOVAL IREG; CONFIRM WINTER COND WITH MANAGER; CALL 701-898-3387 OR 701-453-3387; PRIOR REQUEST ONLY. SNOW REMOVAL LIMITED TO EMERGENCIES.
RY 08/26 CULTIVATED FIELD 40 FT LEFT & RIGHT OF RY CNTRLN FOR ENTIRE LENGTH.
LANDFILL 2500' FM RY 08 THR ON CL - BIRDS POSSIBLE.
15 FT TREES LOCATED 50 FT SOUTH OF RY CNTRLN, STARTING AT RY 26 THR.
FOR CD CTC MINNEAPOLIS ARTCC AT 651-463-5588.

Instrument Procedures

There are no published instrument procedures at Y99.

Some nearby airports with instrument procedures:

08D - Stanley Municipal Airport (24 nm NW)
KMOT - Minot International Airport (30 nm NE)
D05 - Garrison Municipal Airport (31 nm SE)
KMIB - Minot Air Force Base (33 nm NE)
7K5 - Kenmare Municipal Airport (38 nm N)
 
Loc | Ops | Rwys | IFR | FBO | Links
Com | Nav | Svcs | Stats | Notes

Bismarck Aero Center
AirBoss

 
Area around Y99 (Trulson Field Airport)
 
Road maps at: MapQuest Bing Google
 
Aerial photo
WARNING: Photo may not be current or correct
Aerial photo of Y99 (Trulson Field Airport)
Do you have a better or more recent aerial photo of Trulson Field Airport that you would like to share? If so, please send us your photo.

 
Sectional chart

 
Airport distance calculator
Flying to Trulson Field Airport? Find the distance to fly.

From to Y99

Sunrise and sunset
Times for 04-Aug-2020
 Local
(UTC-5)
 Zulu
(UTC)
Morning civil twilight05:5410:54
Sunrise06:3011:30
Sunset21:1702:17
Evening civil twilight21:5302:53

Current date and time
Zulu (UTC)  04-Aug-2020 18:59:03
Local (UTC-5)  04-Aug-2020 13:59:03
 
METAR
K08D 
24nm NW 
041855Z AUTO 19016G21KT 10SM CLR 23/15 A3002 RMK AO2
KMOT 
30nm NE 
041854Z 14009G18KT 10SM BKN110 25/09 A3001 RMK AO2 SLP161 T02500094
KN60 
31nm SE 
041852Z AUTO 14013KT 24/13 A3001 RMK AO1 SLP154 T02440133
KMIB 
34nm NE 
041756Z AUTO 18016KT 10SM CLR 24/12 A3000 RMK AO2 DZE04 SLP161 P0000 60000 T02350115 10236 20108 57024 $
KD60 
43nm NW 
041855Z AUTO 16012KT 10SM CLR 20/16 A3000 RMK AO2
KHZE 
47nm S 
041855Z AUTO 15009G15KT 10SM FEW055 FEW065 BKN090 23/16 A3002 RMK AO2
TAF
KMOT 
30nm NE 
041724Z 0418/0518 15015KT P6SM FEW090 SCT200 FM050300 14005KT P6SM VCTS SCT030CB BKN090 FM050400 01005KT P6SM VCTS SCT030CB BKN120 FM050800 30005KT P6SM SCT028 BKN090 FM051300 32007KT P6SM SCT030 BKN035
KMIB 
34nm NE 
041704Z 0417/0523 15010G15KT 9000 -DZ BKN050 QNH3001INS BECMG 0417/0418 16010G15KT 9999 NSW BKN080 QNH2999INS BECMG 0500/0501 13009KT 9999 VCTS BKN060CB QNH2994INS TEMPO 0501/0508 10009KT 9000 -TSRA BECMG 0508/0509 31009KT 9999 NSW BKN050 QNH2989INS TEMPO 0509/0513 8000 BR BKN001 BECMG 0513/0514 32009KT 9999 BKN050 QNH2993INS TX25/0422Z TN16/0512Z
NOTAMs
Click for the latest NOTAMs
NOTAMs are issued by the DoD/FAA and will open in a separate window not controlled by AirNav.

 

 
 

Would you like to see your business listed on this page?

 If your business provides an interesting product or service to pilots, flight crews, aircraft, or users of the Trulson Field Airport, you should consider listing it here.  To start the listing process, click on the button below
 
Add a business
 

Other Pages about Trulson Field Airport

Update a link
 
Copyright © AirNav, LLC. All rights reserved. Privacy Policy  Contact